Time;durP1;ratioP1;P1;durP2;ratioP2;P2;SDS_P1;SDS_P2;PMS_P1;PMS_P2;Temp;Humidity;BMP_temperature;BMP_pressure;BME280_temperature;BME280_humidity;BME280_pressure;Samples;Min_cycle;Max_cycle;Signal;HPM_P1;HPM_P2
2022/05/27 00:01:29;;;;;;;0.40;0.40;;;14.00;99.90;;;;;;5095168;28;20454;-87
2022/05/27 00:03:58;;;;;;;0.30;0.20;;;13.90;99.90;;;;;;5083618;28;20469;-87
2022/05/27 00:06:26;;;;;;;0.30;0.20;;;13.90;99.90;;;;;;5078059;28;20460;-87
2022/05/27 00:08:56;;;;;;;0.30;0.20;;;13.80;99.90;;;;;;5086993;28;20462;-87
2022/05/27 00:11:24;;;;;;;0.30;0.20;;;13.80;99.90;;;;;;5086873;28;20861;-87
2022/05/27 00:13:52;;;;;;;0.30;0.20;;;13.80;99.90;;;;;;5085812;28;20989;-88
2022/05/27 00:16:20;;;;;;;0.30;0.20;;;13.80;99.90;;;;;;5084892;28;20498;-87
2022/05/27 00:18:48;;;;;;;0.30;0.20;;;13.80;99.90;;;;;;5079187;28;20459;-88
2022/05/27 00:21:16;;;;;;;0.30;0.20;;;13.60;99.90;;;;;;5085798;28;20996;-87
2022/05/27 00:23:44;;;;;;;0.30;0.20;;;13.70;99.90;;;;;;5095710;28;20511;-88
2022/05/27 00:26:13;;;;;;;0.30;0.20;;;13.70;99.90;;;;;;5086073;28;20461;-88
2022/05/27 00:28:40;;;;;;;0.30;0.20;;;13.70;99.90;;;;;;5081945;28;20470;-86
2022/05/27 00:31:08;;;;;;;0.30;0.20;;;13.60;99.90;;;;;;5086007;28;20461;-87
2022/05/27 00:33:37;;;;;;;0.30;0.20;;;13.60;99.90;;;;;;5085218;28;20479;-87
2022/05/27 00:36:08;;;;;;;0.30;0.20;;;13.60;99.90;;;;;;5083362;28;20457;-88
2022/05/27 00:38:36;;;;;;;0.30;0.20;;;13.60;99.90;;;;;;5084740;28;20543;-88
2022/05/27 00:41:04;;;;;;;0.30;0.20;;;13.60;99.90;;;;;;5085798;28;20502;-87
2022/05/27 00:43:33;;;;;;;0.30;0.20;;;13.50;99.90;;;;;;5086478;28;20805;-87
2022/05/27 00:46:05;;;;;;;0.30;0.20;;;13.50;99.90;;;;;;5088680;28;20462;-87
2022/05/27 00:48:37;;;;;;;0.30;0.20;;;13.40;99.90;;;;;;5088457;28;20492;-87
2022/05/27 00:51:09;;;;;;;0.30;0.20;;;13.30;99.90;;;;;;5090508;28;20921;-87
2022/05/27 00:53:40;;;;;;;0.30;0.20;;;13.20;99.90;;;;;;5085887;28;20463;-87
2022/05/27 00:56:10;;;;;;;0.30;0.20;;;13.20;99.90;;;;;;5083676;28;20605;-86
2022/05/27 00:58:41;;;;;;;0.30;0.20;;;13.20;99.90;;;;;;5081916;28;20466;-87
2022/05/27 01:01:09;;;;;;;0.30;0.20;;;13.10;99.90;;;;;;5091114;28;20515;-89
2022/05/27 01:03:39;;;;;;;0.30;0.20;;;12.90;99.90;;;;;;5088410;28;20997;-87
2022/05/27 01:06:06;;;;;;;0.30;0.20;;;12.90;99.90;;;;;;5084742;28;20485;-87
2022/05/27 01:08:34;;;;;;;0.30;0.20;;;12.80;99.90;;;;;;5085142;28;20459;-87
2022/05/27 01:11:14;;;;;;;0.30;0.20;;;12.70;99.90;;;;;;5083858;28;20609;-87
2022/05/27 01:13:58;;;;;;;0.30;0.20;;;12.70;99.90;;;;;;5083921;28;20462;-88
2022/05/27 01:16:36;;;;;;;0.30;0.20;;;12.70;99.90;;;;;;5086249;28;20985;-88
2022/05/27 01:22:46;;;;;;;0.73;0.73;;;12.70;99.90;;;;;;5082528;28;20583;-87
2022/05/27 01:25:52;;;;;;;0.30;0.20;;;12.80;99.90;;;;;;5069652;28;20488;-87
2022/05/27 01:28:39;;;;;;;0.30;0.20;;;12.90;99.90;;;;;;5077497;28;20473;-88
2022/05/27 01:31:18;;;;;;;0.30;0.20;;;13.00;99.90;;;;;;5082888;28;20473;-88
2022/05/27 01:33:56;;;;;;;0.30;0.20;;;13.10;99.90;;;;;;5082135;28;20457;-88
2022/05/27 01:36:31;;;;;;;0.30;0.20;;;13.10;99.90;;;;;;5083562;28;20462;-87
2022/05/27 01:39:07;;;;;;;0.30;0.20;;;13.10;99.90;;;;;;5080111;28;20461;-88
2022/05/27 01:41:43;;;;;;;0.30;0.20;;;13.20;99.90;;;;;;5084094;28;20454;-87
2022/05/27 01:44:17;;;;;;;0.30;0.20;;;13.20;99.90;;;;;;5085684;28;20537;-87
2022/05/27 01:46:47;;;;;;;0.30;0.20;;;13.30;99.90;;;;;;5081969;28;20461;-88
2022/05/27 01:49:24;;;;;;;0.30;0.20;;;13.40;99.90;;;;;;5085199;28;20462;-87
2022/05/27 01:52:00;;;;;;;0.30;0.20;;;13.40;99.90;;;;;;5087803;28;20840;-88
2022/05/27 01:54:39;;;;;;;0.30;0.20;;;13.30;99.90;;;;;;5083869;28;20461;-86
2022/05/27 01:57:10;;;;;;;0.30;0.20;;;13.20;99.90;;;;;;5085677;28;20463;-88
2022/05/27 01:59:48;;;;;;;0.30;0.20;;;13.30;99.90;;;;;;5089704;28;20478;-86
2022/05/27 02:02:21;;;;;;;0.30;0.20;;;13.20;99.90;;;;;;5094187;28;20486;-87
2022/05/27 02:04:54;;;;;;;0.30;0.20;;;13.20;99.90;;;;;;5084546;28;20453;-87
2022/05/27 02:07:25;;;;;;;0.30;0.20;;;13.20;99.90;;;;;;5089163;28;20434;-88
2022/05/27 02:09:58;;;;;;;0.30;0.20;;;13.20;99.90;;;;;;5081876;28;21326;-86
2022/05/27 02:12:29;;;;;;;0.30;0.20;;;13.30;99.90;;;;;;5088552;28;20932;-88
2022/05/27 02:15:03;;;;;;;0.30;0.20;;;13.30;99.90;;;;;;5086986;28;21154;-87
2022/05/27 02:17:36;;;;;;;0.30;0.20;;;13.30;99.90;;;;;;5085409;28;20455;-87
2022/05/27 02:20:08;;;;;;;0.30;0.20;;;13.50;99.90;;;;;;5087170;28;20477;-89
2022/05/27 02:22:40;;;;;;;0.30;0.20;;;13.50;99.90;;;;;;5090865;28;20495;-87
2022/05/27 02:25:11;;;;;;;0.30;0.20;;;13.60;99.90;;;;;;5083771;28;20472;-87
2022/05/27 02:27:45;;;;;;;0.30;0.20;;;13.60;99.90;;;;;;5088481;28;20450;-87
2022/05/27 02:30:16;;;;;;;0.30;0.20;;;13.60;99.90;;;;;;5088284;28;20465;-87
2022/05/27 02:35:07;;;;;;;0.30;0.20;;;13.70;99.90;;;;;;5088458;28;20483;-88
2022/05/27 02:35:38;;;;;;;0.30;0.20;;;13.70;99.90;;;;;;5089143;28;20530;-86
2022/05/27 02:38:05;;;;;;;0.30;0.20;;;13.70;99.90;;;;;;5090733;28;20490;-87
2022/05/27 02:40:37;;;;;;;0.30;0.20;;;13.70;99.90;;;;;;5094715;28;21019;-87
2022/05/27 02:43:11;;;;;;;0.30;0.20;;;13.70;99.90;;;;;;5084018;28;21155;-89
2022/05/27 02:45:47;;;;;;;0.30;0.20;;;13.70;99.90;;;;;;5087748;28;20454;-88
2022/05/27 02:48:24;;;;;;;0.30;0.20;;;13.60;99.90;;;;;;5083789;28;20461;-89
2022/05/27 02:50:59;;;;;;;0.30;0.20;;;13.60;99.90;;;;;;5082324;28;20496;-87
2022/05/27 02:53:32;;;;;;;0.30;0.20;;;13.60;99.90;;;;;;5078619;28;20459;-88
2022/05/27 02:56:08;;;;;;;0.30;0.20;;;13.70;99.90;;;;;;5088319;28;20450;-86
2022/05/27 02:58:35;;;;;;;0.30;0.20;;;13.70;99.90;;;;;;5086512;28;20442;-87
2022/05/27 03:01:04;;;;;;;0.30;0.20;;;13.70;99.90;;;;;;5093491;28;20491;-86
2022/05/27 03:03:33;;;;;;;0.30;0.20;;;13.70;99.90;;;;;;5085722;28;20461;-87
2022/05/27 03:06:16;;;;;;;0.30;0.20;;;13.80;99.90;;;;;;5087206;28;20972;-86
2022/05/27 03:08:59;;;;;;;0.30;0.20;;;13.80;99.90;;;;;;5089370;28;20466;-88
2022/05/27 03:11:35;;;;;;;0.30;0.20;;;13.80;99.90;;;;;;5087695;28;21195;-88
2022/05/27 03:14:19;;;;;;;0.30;0.20;;;13.80;99.90;;;;;;5084386;28;20442;-87
2022/05/27 03:16:58;;;;;;;0.30;0.20;;;13.80;99.90;;;;;;5087855;28;20537;-88
2022/05/27 03:19:44;;;;;;;0.30;0.20;;;13.80;99.90;;;;;;5093675;28;20825;-86
2022/05/27 03:22:19;;;;;;;0.30;0.20;;;13.80;99.90;;;;;;5096482;28;20550;-87
2022/05/27 03:25:00;;;;;;;1.57;0.67;;;13.90;99.90;;;;;;5102942;28;20459;-87
2022/05/27 03:27:34;;;;;;;0.30;0.20;;;13.80;99.90;;;;;;5103524;28;20847;-88
2022/05/27 03:30:06;;;;;;;0.30;0.20;;;13.90;99.90;;;;;;5090723;28;20458;-89
2022/05/27 03:32:42;;;;;;;0.30;0.20;;;13.90;99.90;;;;;;5089685;28;20540;-87
2022/05/27 03:35:18;;;;;;;0.30;0.20;;;13.90;99.90;;;;;;5088776;28;20488;-87
2022/05/27 03:37:55;;;;;;;0.30;0.20;;;13.90;99.90;;;;;;5087003;28;20455;-87
2022/05/27 03:40:27;;;;;;;0.30;0.20;;;13.90;99.90;;;;;;5086336;28;20488;-87
2022/05/27 03:42:57;;;;;;;0.30;0.20;;;13.90;99.90;;;;;;5086744;28;20483;-87
2022/05/27 03:45:25;;;;;;;0.30;0.20;;;13.80;99.90;;;;;;5089162;28;20462;-87
2022/05/27 03:47:53;;;;;;;0.30;0.20;;;13.80;99.90;;;;;;5086394;28;20471;-87
2022/05/27 03:50:25;;;;;;;0.30;0.20;;;13.80;99.90;;;;;;5098247;28;20473;-86
2022/05/27 03:52:57;;;;;;;0.30;0.20;;;13.90;99.90;;;;;;5102342;28;20472;-85
2022/05/27 03:55:27;;;;;;;0.30;0.20;;;13.80;99.90;;;;;;5101752;28;20464;-87
2022/05/27 03:57:54;;;;;;;0.30;0.20;;;13.80;99.90;;;;;;5088292;28;20461;-87
2022/05/27 04:00:22;;;;;;;0.30;0.20;;;13.80;99.90;;;;;;5096900;28;20474;-86
2022/05/27 04:02:49;;;;;;;0.30;0.20;;;13.90;99.90;;;;;;5097558;28;20466;-86
2022/05/27 04:05:23;;;;;;;0.30;0.20;;;14.00;99.90;;;;;;5095202;28;20739;-87
2022/05/27 04:07:51;;;;;;;0.30;0.20;;;14.00;99.90;;;;;;5097341;28;20472;-86
2022/05/27 04:10:19;;;;;;;0.30;0.20;;;14.10;99.90;;;;;;5100851;28;20458;-88
2022/05/27 04:12:47;;;;;;;0.30;0.20;;;14.10;99.90;;;;;;5095186;28;20528;-87
2022/05/27 04:15:14;;;;;;;0.30;0.20;;;14.20;99.90;;;;;;5084359;28;20482;-88
2022/05/27 04:17:42;;;;;;;0.30;0.20;;;14.20;99.90;;;;;;5085418;28;20455;-87
2022/05/27 04:20:13;;;;;;;0.30;0.20;;;14.20;99.90;;;;;;5086114;28;20470;-87
2022/05/27 04:22:43;;;;;;;0.30;0.20;;;14.20;99.90;;;;;;5086982;28;20492;-88
2022/05/27 04:25:11;;;;;;;0.30;0.20;;;14.30;99.90;;;;;;5086482;28;20453;-87
2022/05/27 04:27:39;;;;;;;0.40;0.40;;;14.40;99.90;;;;;;5084890;28;20470;-87
2022/05/27 04:30:08;;;;;;;0.30;0.20;;;14.40;99.90;;;;;;5081097;28;20455;-86
2022/05/27 04:32:36;;;;;;;0.30;0.20;;;14.50;99.90;;;;;;5085782;28;20550;-89
2022/05/27 04:35:04;;;;;;;0.30;0.20;;;14.60;99.90;;;;;;5084378;28;20496;-86
2022/05/27 04:37:32;;;;;;;0.30;0.20;;;14.70;99.90;;;;;;5083489;28;20461;-87
2022/05/27 04:40:02;;;;;;;0.30;0.20;;;14.80;99.90;;;;;;5076451;28;20446;-87
2022/05/27 04:42:30;;;;;;;0.30;0.20;;;14.90;99.90;;;;;;5086946;28;20462;-86
2022/05/27 04:44:57;;;;;;;0.30;0.20;;;14.90;99.90;;;;;;5083407;28;20460;-87
2022/05/27 04:47:24;;;;;;;0.30;0.20;;;14.90;99.90;;;;;;5084896;28;20464;-87
2022/05/27 04:49:53;;;;;;;0.30;0.20;;;14.90;99.90;;;;;;5087789;28;20459;-87
2022/05/27 04:52:23;;;;;;;0.30;0.20;;;14.90;99.90;;;;;;5086928;28;20473;-88
2022/05/27 04:54:51;;;;;;;0.30;0.20;;;14.90;99.90;;;;;;5086319;28;20484;-87
2022/05/27 04:57:23;;;;;;;0.30;0.20;;;15.00;99.90;;;;;;5084745;28;20455;-87
2022/05/27 04:59:51;;;;;;;0.30;0.20;;;15.00;99.90;;;;;;5085390;28;20458;-87
2022/05/27 05:02:20;;;;;;;0.30;0.20;;;15.10;99.90;;;;;;5087541;28;20491;-87
2022/05/27 05:04:48;;;;;;;0.30;0.20;;;15.20;99.90;;;;;;5083789;28;20858;-87
2022/05/27 05:07:20;;;;;;;0.30;0.20;;;15.10;99.90;;;;;;5081263;28;21201;-87
2022/05/27 05:09:47;;;;;;;0.30;0.20;;;15.10;99.90;;;;;;5100787;28;20476;-87
2022/05/27 05:12:15;;;;;;;0.30;0.20;;;15.20;99.90;;;;;;5106827;28;20462;-87
2022/05/27 05:14:44;;;;;;;0.30;0.20;;;15.20;99.90;;;;;;5104679;28;20495;-87
2022/05/27 05:17:11;;;;;;;0.30;0.20;;;15.30;99.90;;;;;;5102526;28;20450;-87
2022/05/27 05:19:39;;;;;;;0.30;0.20;;;15.30;99.90;;;;;;5112989;28;20448;-88
2022/05/27 05:22:06;;;;;;;0.30;0.20;;;15.40;99.90;;;;;;5108434;28;20648;-87
2022/05/27 05:24:34;;;;;;;0.30;0.20;;;15.40;99.90;;;;;;5106213;28;20466;-87
2022/05/27 05:27:05;;;;;;;1.73;1.07;;;15.40;99.90;;;;;;5104436;28;20456;-87
2022/05/27 05:29:33;;;;;;;0.30;0.20;;;15.50;99.90;;;;;;5112623;28;20552;-88
2022/05/27 05:32:01;;;;;;;0.30;0.20;;;15.40;99.90;;;;;;5109351;28;20466;-87
2022/05/27 05:34:29;;;;;;;0.40;0.20;;;15.50;99.90;;;;;;5089669;28;20487;-88
2022/05/27 05:36:59;;;;;;;0.30;0.20;;;15.50;99.90;;;;;;5083878;28;20484;-87
2022/05/27 05:39:26;;;;;;;0.60;0.40;;;15.60;99.90;;;;;;5084386;28;20453;-87
2022/05/27 05:41:59;;;;;;;0.30;0.20;;;15.60;99.90;;;;;;5083258;28;20994;-86
2022/05/27 05:44:30;;;;;;;0.30;0.20;;;15.70;99.90;;;;;;5085259;28;20457;-87
2022/05/27 05:46:58;;;;;;;0.30;0.20;;;15.70;99.90;;;;;;5082728;28;20538;-87
2022/05/27 05:49:27;;;;;;;0.30;0.20;;;15.80;99.90;;;;;;5088443;28;20813;-88
2022/05/27 05:51:56;;;;;;;0.30;0.20;;;15.80;99.90;;;;;;5087085;28;20466;-87
2022/05/27 05:54:24;;;;;;;0.30;0.20;;;15.90;99.90;;;;;;5088949;28;20465;-87
2022/05/27 05:56:52;;;;;;;0.30;0.20;;;16.00;99.90;;;;;;5089231;28;20469;-86
2022/05/27 05:59:21;;;;;;;0.30;0.20;;;16.10;99.90;;;;;;5093075;28;20465;-87
2022/05/27 06:01:48;;;;;;;0.30;0.20;;;16.20;99.90;;;;;;5090664;28;20489;-86
2022/05/27 06:04:16;;;;;;;0.30;0.20;;;16.30;99.90;;;;;;5081504;28;20463;-88
2022/05/27 06:06:45;;;;;;;0.30;0.20;;;16.40;99.90;;;;;;5089091;28;20917;-88
2022/05/27 06:09:12;;;;;;;0.30;0.20;;;16.40;99.90;;;;;;5084346;28;20464;-89
2022/05/27 06:11:40;;;;;;;0.30;0.20;;;16.60;99.90;;;;;;5093148;28;20461;-87
2022/05/27 06:14:08;;;;;;;0.30;0.20;;;16.60;99.90;;;;;;5081639;28;20537;-88
2022/05/27 06:16:38;;;;;;;0.30;0.20;;;16.80;99.90;;;;;;5089010;28;20462;-88
2022/05/27 06:19:06;;;;;;;0.40;0.30;;;17.00;99.90;;;;;;5081641;28;20458;-87
2022/05/27 06:21:33;;;;;;;0.30;0.20;;;17.10;99.90;;;;;;5089163;28;20517;-88
2022/05/27 06:24:03;;;;;;;0.40;0.30;;;17.30;99.90;;;;;;5085631;28;20552;-88
2022/05/27 06:26:31;;;;;;;0.30;0.20;;;17.40;99.90;;;;;;5096000;28;20465;-88
2022/05/27 06:34:28;;;;;;;0.30;0.20;;;17.70;99.90;;;;;;5093302;28;20547;-88
2022/05/27 06:36:59;;;;;;;0.30;0.20;;;17.80;99.90;;;;;;5091888;28;20821;-89
2022/05/27 06:39:29;;;;;;;0.40;0.23;;;17.80;99.90;;;;;;5087983;28;20455;-88
2022/05/27 06:41:57;;;;;;;0.30;0.20;;;18.20;99.90;;;;;;5095422;28;20489;-88
2022/05/27 06:44:24;;;;;;;0.30;0.20;;;18.50;99.90;;;;;;5097378;28;20441;-89
2022/05/27 06:46:52;;;;;;;0.30;0.20;;;19.10;99.90;;;;;;5088551;28;20470;-89
2022/05/27 06:49:20;;;;;;;0.30;0.20;;;18.90;99.90;;;;;;5085017;28;20867;-89
2022/05/27 06:51:48;;;;;;;0.30;0.20;;;18.90;99.90;;;;;;5072223;28;20454;-88
2022/05/27 06:54:17;;;;;;;0.30;0.20;;;19.20;99.90;;;;;;5086568;28;20458;-88
2022/05/27 06:56:49;;;;;;;0.30;0.20;;;19.60;99.90;;;;;;5087216;28;20451;-88
2022/05/27 06:59:16;;;;;;;0.30;0.20;;;19.60;99.90;;;;;;5088975;28;20469;-88
2022/05/27 07:01:44;;;;;;;0.30;0.30;;;19.30;99.90;;;;;;5086084;28;20476;-88
2022/05/27 07:04:12;;;;;;;0.30;0.20;;;19.10;99.90;;;;;;5087002;28;20462;-88
2022/05/27 07:06:43;;;;;;;0.30;0.20;;;18.90;99.20;;;;;;5088149;28;20463;-88
2022/05/27 07:09:11;;;;;;;0.37;0.20;;;18.90;99.90;;;;;;5083886;28;20477;-88
2022/05/27 07:11:41;;;;;;;0.30;0.20;;;18.60;99.60;;;;;;5079288;28;20464;-88
2022/05/27 07:14:11;;;;;;;0.30;0.20;;;18.30;99.90;;;;;;5083283;28;20463;-88
2022/05/27 07:16:39;;;;;;;0.40;0.20;;;18.30;99.90;;;;;;5084593;28;20469;-89
2022/05/27 07:19:07;;;;;;;0.30;0.20;;;18.20;99.90;;;;;;5081310;28;20459;-88
2022/05/27 07:21:39;;;;;;;0.30;0.20;;;18.30;99.90;;;;;;5085487;28;20601;-88
2022/05/27 07:24:11;;;;;;;0.40;0.20;;;18.30;99.90;;;;;;5083020;28;20557;-88
2022/05/27 07:26:40;;;;;;;0.30;0.20;;;18.40;99.90;;;;;;5080950;28;20472;-89
2022/05/27 07:29:10;;;;;;;0.30;0.20;;;18.60;99.90;;;;;;5084544;28;20461;-87
2022/05/27 07:31:39;;;;;;;0.30;0.20;;;18.40;99.90;;;;;;5088938;28;20461;-88
2022/05/27 07:34:07;;;;;;;0.30;0.20;;;18.40;99.90;;;;;;5087294;28;20453;-88
2022/05/27 07:36:35;;;;;;;0.30;0.20;;;18.50;99.90;;;;;;5081420;28;20454;-88
2022/05/27 07:39:02;;;;;;;0.40;0.20;;;18.50;99.90;;;;;;5085258;28;22302;-87
2022/05/27 07:41:30;;;;;;;0.30;0.20;;;18.60;99.90;;;;;;5084101;28;20482;-88
2022/05/27 07:43:59;;;;;;;0.30;0.20;;;18.40;99.90;;;;;;5083928;28;20458;-87
2022/05/27 07:46:30;;;;;;;0.30;0.20;;;18.30;99.90;;;;;;5085027;28;20442;-87
2022/05/27 07:48:57;;;;;;;0.30;0.20;;;18.70;99.90;;;;;;5083909;28;20859;-88
2022/05/27 07:51:27;;;;;;;0.40;0.20;;;19.10;99.90;;;;;;5085156;28;20478;-88
2022/05/27 07:53:54;;;;;;;0.40;0.30;;;19.20;99.10;;;;;;5084932;28;20604;-88
2022/05/27 07:56:22;;;;;;;0.40;0.20;;;19.40;98.80;;;;;;5082357;28;20473;-87
2022/05/27 07:58:49;;;;;;;0.30;0.20;;;19.40;99.40;;;;;;5083484;28;20470;-87
2022/05/27 08:01:17;;;;;;;0.40;0.20;;;19.40;98.20;;;;;;5081785;28;20471;-88
2022/05/27 08:03:46;;;;;;;0.30;0.20;;;19.30;98.70;;;;;;5080039;28;20454;-88
2022/05/27 08:06:14;;;;;;;0.30;0.20;;;19.30;98.80;;;;;;5082656;28;20800;-89
2022/05/27 08:08:41;;;;;;;0.40;0.20;;;19.70;99.00;;;;;;5079740;28;20456;-88
2022/05/27 08:11:09;;;;;;;0.30;0.20;;;19.80;97.90;;;;;;5084394;28;20468;-87
2022/05/27 08:13:39;;;;;;;0.40;0.20;;;19.90;97.90;;;;;;5084260;28;20993;-86
2022/05/27 08:16:07;;;;;;;0.30;0.20;;;20.00;97.40;;;;;;5077154;28;20470;-86
2022/05/27 08:18:35;;;;;;;0.30;0.20;;;19.70;96.90;;;;;;5077079;28;20474;-87
2022/05/27 08:21:04;;;;;;;0.40;0.20;;;19.70;95.90;;;;;;5080500;28;21081;-88
2022/05/27 08:23:31;;;;;;;0.40;0.20;;;19.70;95.90;;;;;;5083797;28;20545;-89
2022/05/27 08:25:58;;;;;;;0.40;0.20;;;19.70;96.30;;;;;;5082225;28;21184;-88
2022/05/27 08:28:26;;;;;;;0.40;0.30;;;20.10;98.50;;;;;;5085307;28;20466;-88
2022/05/27 08:30:58;;;;;;;0.30;0.20;;;20.10;98.20;;;;;;5085377;28;20550;-88
2022/05/27 08:38:00;;;;;;;0.40;0.30;;;20.20;96.00;;;;;;5094168;28;20474;-88
2022/05/27 08:39:01;;;;;;;0.40;0.20;;;20.20;96.30;;;;;;5082982;28;20965;-88
2022/05/27 08:41:58;;;;;;;0.40;0.20;;;20.50;97.20;;;;;;5081080;28;21201;-88
2022/05/27 08:44:35;;;;;;;0.40;0.20;;;20.70;97.10;;;;;;5067899;28;20455;-88
2022/05/27 08:47:10;;;;;;;0.40;0.20;;;21.10;96.80;;;;;;5081266;28;20537;-88
2022/05/27 08:49:41;;;;;;;0.40;0.20;;;21.30;97.10;;;;;;5086287;28;21094;-88
2022/05/27 08:52:15;;;;;;;0.40;0.20;;;21.20;95.20;;;;;;5086801;28;20516;-88
2022/05/27 08:54:47;;;;;;;0.40;0.20;;;21.00;95.10;;;;;;5086407;28;20568;-88
2022/05/27 09:00:05;;;;;;;0.40;0.30;;;21.00;95.70;;;;;;5077055;28;20432;-88
2022/05/27 09:02:37;;;;;;;0.40;0.20;;;21.30;96.30;;;;;;5087145;28;20511;-87
2022/05/27 09:05:15;;;;;;;0.40;0.20;;;21.20;94.90;;;;;;5085599;28;21121;-88
2022/05/27 09:07:49;;;;;;;0.40;0.20;;;21.20;94.90;;;;;;5072755;28;20444;-87
2022/05/27 09:10:19;;;;;;;0.40;0.23;;;21.30;94.00;;;;;;5086271;28;20454;-87
2022/05/27 09:13:05;;;;;;;0.40;0.20;;;21.20;93.40;;;;;;5091156;28;20499;-86
2022/05/27 09:15:43;;;;;;;0.40;0.20;;;21.60;94.80;;;;;;5083467;28;20457;-88
2022/05/27 09:18:21;;;;;;;0.40;0.20;;;21.50;93.90;;;;;;5086896;28;20468;-88
2022/05/27 09:21:12;;;;;;;0.40;0.20;;;21.40;93.20;;;;;;5083452;28;20464;-88
2022/05/27 09:24:02;;;;;;;0.40;0.20;;;21.70;95.30;;;;;;5085951;28;20497;-88
2022/05/27 09:26:37;;;;;;;0.40;0.20;;;21.80;93.60;;;;;;5079480;28;20515;-87
2022/05/27 09:29:11;;;;;;;0.40;0.20;;;21.90;93.30;;;;;;5108196;28;20799;-88
2022/05/27 09:31:43;;;;;;;0.40;0.20;;;21.70;92.70;;;;;;5104576;28;20466;-87
2022/05/27 09:34:12;;;;;;;0.40;0.20;;;21.80;91.90;;;;;;5106588;28;20879;-89
2022/05/27 09:36:43;;;;;;;0.40;0.20;;;21.70;92.60;;;;;;5098007;28;20522;-88
2022/05/27 09:39:14;;;;;;;0.40;0.20;;;21.80;92.00;;;;;;5088307;28;20449;-88
2022/05/27 09:41:47;;;;;;;0.40;0.20;;;21.80;90.70;;;;;;5088773;28;20453;-89
2022/05/27 09:44:22;;;;;;;0.40;0.20;;;21.90;92.00;;;;;;5074162;28;20455;-89
2022/05/27 09:46:51;;;;;;;0.40;0.20;;;22.10;91.70;;;;;;5081962;28;20492;-88
2022/05/27 09:49:18;;;;;;;0.40;0.20;;;22.50;91.10;;;;;;5082011;28;20475;-90
2022/05/27 09:51:45;;;;;;;0.40;0.20;;;22.40;90.80;;;;;;5085695;28;20869;-88
2022/05/27 09:54:25;;;;;;;0.40;0.30;;;22.90;92.70;;;;;;5085721;28;20458;-90
2022/05/27 09:57:02;;;;;;;0.40;0.20;;;22.70;90.90;;;;;;5077815;28;20447;-88
2022/05/27 09:59:36;;;;;;;0.40;0.20;;;23.20;90.60;;;;;;5074525;28;20934;-89
2022/05/27 10:02:22;;;;;;;0.40;0.20;;;23.50;86.90;;;;;;5086000;28;20497;-88
2022/05/27 10:04:54;;;;;;;0.40;0.27;;;23.60;91.30;;;;;;5085705;28;20551;-88
2022/05/27 10:07:35;;;;;;;0.40;0.23;;;23.50;88.40;;;;;;5081805;28;20463;-89
2022/05/27 10:10:24;;;;;;;0.40;0.20;;;23.30;90.30;;;;;;5085114;28;20933;-89
2022/05/27 10:12:52;;;;;;;0.40;0.20;;;23.50;89.50;;;;;;5087364;28;21050;-88
2022/05/27 10:15:32;;;;;;;0.40;0.20;;;23.10;86.80;;;;;;5089960;28;20492;-89
2022/05/27 10:18:14;;;;;;;0.77;0.37;;;22.30;88.60;;;;;;5071157;28;20486;-89
2022/05/27 10:20:43;;;;;;;0.40;0.20;;;22.10;90.90;;;;;;5079982;28;20463;-89
2022/05/27 10:23:12;;;;;;;0.40;0.30;;;21.80;90.00;;;;;;5088386;28;20547;-89
2022/05/27 10:25:43;;;;;;;0.40;0.20;;;21.90;90.40;;;;;;5089716;28;20476;-88
2022/05/27 10:28:22;;;;;;;0.40;0.30;;;21.80;89.90;;;;;;5091161;28;21077;-89
2022/05/27 10:30:55;;;;;;;0.40;0.20;;;21.40;90.80;;;;;;5079955;28;20944;-88
2022/05/27 10:33:24;;;;;;;0.40;0.20;;;21.50;88.70;;;;;;5085676;28;20455;-89
2022/05/27 10:35:54;;;;;;;0.40;0.20;;;21.80;89.50;;;;;;5088161;28;20495;-88
2022/05/27 10:38:43;;;;;;;0.40;0.20;;;22.20;90.80;;;;;;5088961;28;20785;-88
2022/05/27 10:41:21;;;;;;;0.40;0.20;;;22.10;87.50;;;;;;5086752;28;20469;-88
2022/05/27 10:44:14;;;;;;;0.40;0.30;;;21.90;88.80;;;;;;5086863;28;20482;-89
2022/05/27 10:46:49;;;;;;;0.40;0.20;;;21.70;90.20;;;;;;5088398;28;20461;-89
2022/05/27 10:50:01;;;;;;;0.40;0.20;;;21.40;89.90;;;;;;5083867;28;20455;-88
2022/05/27 10:52:46;;;;;;;0.40;0.20;;;21.50;90.90;;;;;;5086929;28;20457;-89
2022/05/27 10:55:20;;;;;;;0.40;0.20;;;21.80;90.50;;;;;;5098407;28;20521;-89
2022/05/27 11:04:28;;;;;;;0.40;0.20;;;22.30;88.80;;;;;;5092732;28;21014;-88
2022/05/27 11:07:08;;;;;;;0.40;0.20;;;22.80;92.10;;;;;;5085708;28;20451;-88
2022/05/27 11:09:48;;;;;;;0.40;0.20;;;22.50;85.40;;;;;;5104173;28;20862;-88
2022/05/27 11:12:23;;;;;;;0.40;0.20;;;22.60;90.20;;;;;;5090812;28;20427;-88
2022/05/27 11:15:10;;;;;;;0.40;0.20;;;22.40;88.50;;;;;;5090280;28;20438;-88
2022/05/27 11:17:52;;;;;;;0.40;0.20;;;22.40;90.00;;;;;;5078580;28;20542;-89
2022/05/27 11:20:58;;;;;;;0.40;0.20;;;22.70;91.20;;;;;;5068214;28;20485;-87
2022/05/27 11:24:01;;;;;;;0.40;0.30;;;23.20;90.30;;;;;;5024733;28;20876;-88
2022/05/27 11:26:37;;;;;;;0.40;0.20;;;23.70;90.40;;;;;;5024163;28;20845;-88
2022/05/27 11:29:21;;;;;;;0.40;0.20;;;23.70;85.40;;;;;;5075370;28;20543;-89
2022/05/27 11:31:58;;;;;;;0.40;0.20;;;23.40;87.00;;;;;;5089084;28;20841;-88
2022/05/27 11:34:28;;;;;;;0.40;0.20;;;23.20;90.00;;;;;;5084570;28;20463;-89
2022/05/27 11:37:24;;;;;;;0.40;0.20;;;23.10;90.40;;;;;;5088382;28;20439;-89
2022/05/27 11:40:21;;;;;;;0.40;0.20;;;22.70;89.60;;;;;;5083736;28;20820;-89
2022/05/27 11:43:37;;;;;;;0.40;0.20;;;23.10;90.30;;;;;;5084120;28;20528;-88
2022/05/27 11:46:32;;;;;;;0.40;0.20;;;23.50;89.50;;;;;;5076017;28;21205;-89
2022/05/27 11:49:18;;;;;;;0.40;0.20;;;24.00;90.30;;;;;;5083988;28;21108;-86
2022/05/27 11:51:57;;;;;;;0.40;0.20;;;23.80;87.00;;;;;;5083403;28;20466;-86
2022/05/27 11:54:38;;;;;;;0.40;0.20;;;23.60;87.00;;;;;;5088390;28;20442;-87
2022/05/27 11:57:19;;;;;;;0.40;0.30;;;23.20;87.70;;;;;;5084446;28;20516;-86
2022/05/27 11:59:50;;;;;;;0.40;0.30;;;23.20;90.00;;;;;;5086424;28;20509;-87
2022/05/27 12:02:31;;;;;;;0.43;0.30;;;23.10;88.30;;;;;;5088131;28;20458;-87
2022/05/27 12:05:05;;;;;;;0.77;0.30;;;23.30;90.70;;;;;;5084115;28;20860;-86
2022/05/27 12:07:36;;;;;;;0.40;0.20;;;23.20;87.80;;;;;;5088250;28;20499;-86
2022/05/27 12:10:18;;;;;;;0.40;0.30;;;23.20;88.90;;;;;;5087238;28;20516;-86
2022/05/27 12:12:54;;;;;;;0.40;0.30;;;23.40;90.20;;;;;;5085724;28;20467;-87
2022/05/27 12:15:28;;;;;;;0.40;0.20;;;23.40;85.20;;;;;;5083453;28;20458;-87
2022/05/27 12:17:58;;;;;;;0.40;0.20;;;23.70;85.60;;;;;;5081124;28;20504;-86
2022/05/27 12:20:30;;;;;;;0.40;0.30;;;23.80;86.20;;;;;;5083450;28;20907;-88
2022/05/27 12:22:59;;;;;;;0.40;0.20;;;23.80;86.30;;;;;;5079934;28;20495;-88
2022/05/27 12:25:30;;;;;;;0.40;0.20;;;23.80;86.80;;;;;;5081429;28;20454;-87
2022/05/27 12:28:00;;;;;;;0.40;0.20;;;23.60;84.50;;;;;;5088364;28;20532;-87
2022/05/27 12:30:31;;;;;;;0.40;0.20;;;23.60;88.10;;;;;;5099627;28;20466;-87
2022/05/27 12:33:00;;;;;;;0.50;0.30;;;23.50;87.60;;;;;;5103999;28;20455;-87
2022/05/27 12:35:44;;;;;;;0.40;0.20;;;23.50;86.60;;;;;;5111842;28;20478;-87
2022/05/27 12:38:15;;;;;;;0.40;0.30;;;23.30;87.70;;;;;;5091262;28;20459;-87
2022/05/27 12:40:48;;;;;;;0.40;0.20;;;23.40;86.90;;;;;;5076459;28;20470;-87
2022/05/27 12:43:27;;;;;;;0.40;0.20;;;24.00;87.00;;;;;;5092383;28;20469;-87
2022/05/27 12:45:56;;;;;;;0.40;0.20;;;24.20;86.50;;;;;;5089585;28;20454;-87
2022/05/27 12:48:35;;;;;;;0.40;0.20;;;24.00;84.60;;;;;;5091542;28;20480;-88
2022/05/27 12:51:06;;;;;;;0.40;0.20;;;24.10;86.40;;;;;;5086994;28;21106;-88
2022/05/27 12:53:44;;;;;;;0.40;0.20;;;23.70;85.80;;;;;;5086580;28;20458;-87
2022/05/27 13:02:52;;;;;;;0.40;0.20;;;23.40;85.70;;;;;;5081887;28;20443;-87
2022/05/27 13:05:22;;;;;;;0.40;0.20;;;23.70;88.00;;;;;;5082520;28;21024;-88
2022/05/27 13:08:10;;;;;;;0.40;0.20;;;23.70;84.00;;;;;;5081789;28;20478;-88
2022/05/27 13:10:48;;;;;;;0.40;0.27;;;23.70;84.40;;;;;;5085679;28;20526;-87
2022/05/27 13:13:20;;;;;;;0.40;0.20;;;23.90;83.80;;;;;;5082742;28;20470;-88
2022/05/27 13:15:54;;;;;;;0.40;0.20;;;23.70;82.60;;;;;;5083598;28;21231;-88
2022/05/27 13:18:35;;;;;;;0.40;0.20;;;24.00;86.10;;;;;;5085733;28;20481;-89
2022/05/27 13:21:11;;;;;;;0.40;0.20;;;23.70;82.60;;;;;;5080716;28;20463;-87
2022/05/27 13:23:58;;;;;;;0.40;0.30;;;23.20;83.30;;;;;;5078879;28;20489;-88
2022/05/27 13:26:38;;;;;;;0.40;0.20;;;23.30;82.00;;;;;;5079567;28;20921;-88
2022/05/27 13:29:24;;;;;;;0.40;0.20;;;23.30;81.20;;;;;;5090020;28;20494;-90
2022/05/27 13:31:55;;;;;;;0.40;0.20;;;23.50;81.70;;;;;;5082522;28;20932;-89
2022/05/27 13:34:31;;;;;;;0.40;0.20;;;23.40;81.80;;;;;;5083597;28;21095;-88
2022/05/27 13:37:01;;;;;;;0.40;0.20;;;23.40;80.40;;;;;;5090340;28;20510;-89
2022/05/27 13:39:37;;;;;;;0.40;0.20;;;23.50;81.60;;;;;;5107813;28;20442;-88
2022/05/27 13:42:06;;;;;;;0.40;0.20;;;23.60;80.80;;;;;;5102260;28;20451;-90
2022/05/27 13:44:38;;;;;;;0.40;0.30;;;23.70;82.40;;;;;;5083120;28;20911;-89
2022/05/27 13:47:06;;;;;;;0.40;0.20;;;23.60;81.40;;;;;;5089066;28;20459;-89